createdAt,value
2022-10-09T00:01:26.141Z,102101.66
2022-10-09T00:03:56.763Z,102107.16
2022-10-09T00:06:28.238Z,102117.78
2022-10-09T00:08:56.491Z,102115.22
2022-10-09T00:11:26.404Z,102112.00
2022-10-09T00:13:55.923Z,102107.41
2022-10-09T00:16:24.945Z,102106.56
2022-10-09T00:18:53.649Z,102096.97
2022-10-09T00:21:24.795Z,102098.97
2022-10-09T00:23:55.891Z,102105.16
2022-10-09T00:26:24.557Z,102107.00
2022-10-09T00:28:53.160Z,102106.13
2022-10-09T00:31:21.732Z,102108.72
2022-10-09T00:33:50.333Z,102100.41
2022-10-09T00:36:21.140Z,102101.72
2022-10-09T00:38:49.759Z,102097.47
2022-10-09T00:41:25.386Z,102106.44
2022-10-09T00:43:55.112Z,102110.97
2022-10-09T00:46:31.241Z,102111.94
2022-10-09T00:49:03.766Z,102107.63
2022-10-09T00:51:33.505Z,102104.22
2022-10-09T00:54:03.843Z,102098.22
2022-10-09T00:56:33.615Z,102105.94
2022-10-09T00:59:02.352Z,102108.78
2022-10-09T01:01:30.500Z,102110.41
2022-10-09T01:03:58.804Z,102110.47
2022-10-09T01:06:41.061Z,102108.56
2022-10-09T01:09:15.854Z,102112.22
2022-10-09T01:11:57.013Z,102104.16
2022-10-09T01:14:29.156Z,102103.03
2022-10-09T01:17:03.437Z,102101.25
2022-10-09T01:19:50.304Z,102106.94
2022-10-09T01:22:32.072Z,102103.19
2022-10-09T01:25:06.207Z,102094.41
2022-10-09T01:27:38.371Z,102092.84
2022-10-09T01:30:09.818Z,102090.22
2022-10-09T01:32:40.973Z,102084.84
2022-10-09T01:35:12.134Z,102089.38
2022-10-09T01:37:43.578Z,102084.84
2022-10-09T01:40:14.265Z,102083.94
2022-10-09T01:42:46.934Z,102073.16
2022-10-09T01:45:16.390Z,102074.00
2022-10-09T01:47:44.943Z,102070.63
2022-10-09T01:50:20.921Z,102064.31
2022-10-09T01:52:55.666Z,102057.09
2022-10-09T01:55:35.555Z,102062.56
2022-10-09T01:58:30.136Z,102053.75
2022-10-09T02:01:15.487Z,102049.34
2022-10-09T02:03:50.119Z,102053.06
2022-10-09T02:06:19.994Z,102048.22
2022-10-09T02:08:54.822Z,102046.59
2022-10-09T02:11:27.079Z,102047.81
2022-10-09T02:13:57.070Z,102042.72
2022-10-09T02:16:37.686Z,102038.16
2022-10-09T02:19:15.271Z,102034.50
2022-10-09T02:22:02.106Z,102039.91
2022-10-09T02:24:33.193Z,102043.44
2022-10-09T02:27:20.308Z,102039.13
2022-10-09T02:30:08.982Z,102035.63
2022-10-09T02:32:37.536Z,102040.41
2022-10-09T02:35:15.232Z,102033.41
2022-10-09T02:37:55.347Z,102030.66
2022-10-09T02:40:32.155Z,102031.03
2022-10-09T02:43:20.079Z,102025.69
2022-10-09T02:45:57.152Z,102030.78
2022-10-09T02:48:25.384Z,102019.06
2022-10-09T02:50:53.524Z,102033.97
2022-10-09T02:53:35.685Z,102018.78
2022-10-09T02:56:06.600Z,102022.28
2022-10-09T02:58:36.146Z,102019.91
2022-10-09T03:01:06.583Z,102012.63
2022-10-09T03:03:47.666Z,102018.66
2022-10-09T03:06:20.611Z,102012.50
2022-10-09T03:08:58.673Z,102014.25
2022-10-09T03:11:32.296Z,102016.09
2022-10-09T03:14:15.645Z,102014.09
2022-10-09T03:16:54.483Z,102016.53
2022-10-09T03:19:28.047Z,102013.25
2022-10-09T03:21:56.126Z,102015.09
2022-10-09T03:24:24.273Z,102012.72
2022-10-09T03:26:52.458Z,102012.25
2022-10-09T03:29:21.144Z,102009.63
2022-10-09T03:31:52.731Z,102006.78
2022-10-09T03:34:21.448Z,101999.69
2022-10-09T03:36:50.294Z,102001.47
2022-10-09T03:39:18.494Z,101999.44
2022-10-09T03:41:46.594Z,102010.31
2022-10-09T03:44:14.722Z,102003.00
2022-10-09T03:46:42.910Z,101998.63
2022-10-09T03:49:12.571Z,102005.78
2022-10-09T03:51:40.721Z,102005.09
2022-10-09T03:54:11.582Z,102002.03
2022-10-09T03:56:44.173Z,101995.47
2022-10-09T03:59:12.835Z,101998.16
2022-10-09T04:01:41.121Z,102000.63
2022-10-09T04:04:13.977Z,101999.69
2022-10-09T04:06:45.048Z,101995.47
2022-10-09T04:09:13.347Z,101990.25
2022-10-09T04:11:48.255Z,101992.75
2022-10-09T04:14:20.004Z,101986.28
2022-10-09T04:16:48.467Z,101992.69
2022-10-09T04:19:20.643Z,101987.47
2022-10-09T04:22:13.641Z,101992.41
2022-10-09T04:24:49.781Z,101989.63
2022-10-09T04:27:28.276Z,101980.63
2022-10-09T04:30:04.392Z,101977.22
2022-10-09T04:32:35.065Z,101981.69
2022-10-09T04:35:15.207Z,101976.97
2022-10-09T04:37:43.635Z,101979.59
2022-10-09T04:40:12.424Z,101982.13
2022-10-09T04:42:40.651Z,101978.53
2022-10-09T04:45:09.858Z,101977.53
2022-10-09T04:47:38.090Z,101974.28
2022-10-09T04:50:11.093Z,101975.22
2022-10-09T04:52:39.212Z,101968.72
2022-10-09T04:55:08.317Z,101974.03
2022-10-09T04:57:36.570Z,101965.22
2022-10-09T05:00:05.259Z,101960.13
2022-10-09T05:02:33.652Z,101956.50
2022-10-09T05:05:04.292Z,101961.75
2022-10-09T05:07:33.846Z,101956.34
2022-10-09T05:10:01.978Z,101953.81
2022-10-09T05:12:30.202Z,101959.81
2022-10-09T05:14:58.387Z,101962.50
2022-10-09T05:17:26.671Z,101951.09
2022-10-09T05:19:57.682Z,101948.25
2022-10-09T05:22:26.009Z,101948.47
2022-10-09T05:24:55.561Z,101951.19
2022-10-09T05:27:23.838Z,101948.31
2022-10-09T05:29:53.692Z,101944.63
2022-10-09T05:32:24.296Z,101952.66
2022-10-09T05:34:53.709Z,101943.94
2022-10-09T05:37:21.994Z,101949.41
2022-10-09T05:39:59.935Z,101953.91
2022-10-09T05:42:38.441Z,101949.84
2022-10-09T05:45:08.562Z,101947.34
2022-10-09T05:47:36.849Z,101948.28
2022-10-09T05:50:05.587Z,101945.97
2022-10-09T05:52:33.753Z,101945.94
2022-10-09T05:55:01.967Z,101946.94
2022-10-09T05:57:30.398Z,101939.63
2022-10-09T06:00:00.011Z,101940.53
2022-10-09T06:02:28.304Z,101934.22
2022-10-09T06:04:56.738Z,101935.06
2022-10-09T06:07:24.987Z,101934.16
2022-10-09T06:09:53.142Z,101929.81
2022-10-09T06:12:42.293Z,101936.75
2022-10-09T06:15:25.343Z,101937.69
2022-10-09T06:17:56.310Z,101939.63
2022-10-09T06:20:27.603Z,101941.34
2022-10-09T06:22:57.839Z,101944.84
2022-10-09T06:25:40.557Z,101940.16
2022-10-09T06:28:35.271Z,101940.22
2022-10-09T06:31:07.477Z,101940.25
2022-10-09T06:33:40.176Z,101933.88
2022-10-09T06:36:10.873Z,101931.94
2022-10-09T06:38:40.972Z,101933.03
2022-10-09T06:41:11.120Z,101932.91
2022-10-09T06:43:40.817Z,101927.38
2022-10-09T06:46:15.229Z,101929.84
2022-10-09T06:48:43.580Z,101930.78
2022-10-09T06:51:15.516Z,101922.56
2022-10-09T06:53:45.824Z,101928.72
2022-10-09T06:56:16.135Z,101928.03
2022-10-09T06:58:45.024Z,101931.44
2022-10-09T07:01:16.883Z,101933.59
2022-10-09T07:03:54.895Z,101929.81
2022-10-09T07:06:34.708Z,101936.88
2022-10-09T07:09:07.607Z,101936.97
2022-10-09T07:11:50.978Z,101940.56
2022-10-09T07:14:26.893Z,101941.72
2022-10-09T07:17:48.074Z,101946.41
2022-10-09T07:52:23.932Z,101940.97
2022-10-09T07:55:47.403Z,101932.47
2022-10-09T07:58:15.604Z,101936.81
2022-10-09T08:00:44.478Z,101937.09
2022-10-09T08:03:12.605Z,101935.00
2022-10-09T08:05:40.795Z,101937.66
2022-10-09T08:08:10.341Z,101942.91
2022-10-09T08:11:13.530Z,101932.09
2022-10-09T08:13:53.080Z,101929.63
2022-10-09T08:17:09.782Z,101918.63
2022-10-09T08:24:41.551Z,101928.75
2022-10-09T08:27:11.040Z,101934.78
2022-10-09T08:29:40.327Z,101928.81
2022-10-09T08:32:08.609Z,101933.22
2022-10-09T08:34:36.634Z,101940.00
2022-10-09T08:37:04.590Z,101940.66
2022-10-09T08:39:32.845Z,101929.38
2022-10-09T08:42:03.431Z,101939.78
2022-10-09T08:44:38.999Z,101935.84
2022-10-09T08:47:10.469Z,101931.66
2022-10-09T08:49:45.144Z,101944.69
2022-10-09T08:52:22.026Z,101950.31
2022-10-09T08:54:50.178Z,101952.56
2022-10-09T08:57:18.878Z,101951.41
2022-10-09T08:59:48.435Z,101957.44
2022-10-09T09:02:53.082Z,101949.00
2022-10-09T09:05:38.493Z,101949.78
2022-10-09T09:08:23.453Z,101945.19
2022-10-09T09:10:58.889Z,101954.50
2022-10-09T09:13:41.885Z,101955.63
2022-10-09T09:16:19.270Z,101959.78
2022-10-09T09:19:10.901Z,101956.28
2022-10-09T09:21:49.005Z,101962.28
2022-10-09T09:24:20.205Z,101966.25
2022-10-09T09:26:52.852Z,101973.56
2022-10-09T09:29:24.360Z,101969.19
2022-10-09T09:31:58.182Z,101968.81
2022-10-09T09:34:34.835Z,101960.59
2022-10-09T09:37:03.477Z,101959.50
2022-10-09T09:42:23.093Z,101958.03
2022-10-09T09:44:58.869Z,101959.50
2022-10-09T09:47:34.691Z,101960.22
2022-10-09T09:56:53.316Z,101952.94
2022-10-09T09:59:33.819Z,101955.47
2022-10-09T10:02:13.865Z,101956.44
2022-10-09T10:04:54.861Z,101946.88
2022-10-09T10:07:30.689Z,101953.53
2022-10-09T10:10:08.093Z,101934.44
2022-10-09T10:12:41.829Z,101938.72
2022-10-09T10:15:20.045Z,101943.53
2022-10-09T10:17:49.982Z,101936.31
2022-10-09T10:20:19.986Z,101931.81
2022-10-09T10:22:53.152Z,101935.78
2022-10-09T10:25:24.649Z,101931.31
2022-10-09T10:27:57.275Z,101934.09
2022-10-09T10:30:25.473Z,101936.34
2022-10-09T10:33:00.078Z,101931.38
2022-10-09T10:35:33.810Z,101932.28
2022-10-09T10:38:06.452Z,101930.50
2022-10-09T10:40:37.929Z,101931.28
2022-10-09T10:43:16.676Z,101929.22
2022-10-09T10:45:59.061Z,101924.88
2022-10-09T10:48:39.390Z,101916.66
2022-10-09T10:51:24.525Z,101920.50
2022-10-09T10:54:03.981Z,101910.72
2022-10-09T10:56:41.373Z,101917.06
2022-10-09T10:59:30.352Z,101908.66
2022-10-09T11:02:21.083Z,101910.75
2022-10-09T11:04:57.500Z,101907.28
2022-10-09T11:07:35.875Z,101898.25
2022-10-09T11:10:17.003Z,101897.69
2022-10-09T11:12:59.359Z,101887.31
2022-10-09T11:15:37.946Z,101885.38
2022-10-09T11:18:22.947Z,101885.25
2022-10-09T11:21:04.068Z,101888.09
2022-10-09T11:23:46.214Z,101886.53
2022-10-09T11:26:24.914Z,101878.59
2022-10-09T11:28:59.514Z,101870.81
2022-10-09T11:31:34.221Z,101871.22
2022-10-09T11:34:10.727Z,101865.59
2022-10-09T11:36:42.047Z,101853.63
2022-10-09T11:39:18.205Z,101854.31
2022-10-09T11:41:48.644Z,101845.50
2022-10-09T11:44:38.938Z,101845.00
2022-10-09T11:47:15.921Z,101840.53
2022-10-09T11:49:58.777Z,101844.50
2022-10-09T11:52:36.901Z,101839.72
2022-10-09T11:55:21.994Z,101837.75
2022-10-09T11:57:50.918Z,101835.22
2022-10-09T12:00:33.954Z,101823.38
2022-10-09T12:03:04.387Z,101829.59
2022-10-09T12:05:43.885Z,101816.66
2022-10-09T12:08:18.414Z,101820.09
2022-10-09T12:10:54.225Z,101813.91
2022-10-09T12:13:43.056Z,101813.00
2022-10-09T12:16:30.056Z,101799.81
2022-10-09T12:19:00.153Z,101809.09
2022-10-09T12:21:32.792Z,101797.66
2022-10-09T12:24:01.640Z,101787.63
2022-10-09T12:26:32.344Z,101792.97
2022-10-09T12:29:03.241Z,101783.25
2022-10-09T12:31:35.137Z,101775.19
2022-10-09T12:34:15.054Z,101773.13
2022-10-09T12:36:43.172Z,101765.94
2022-10-09T12:39:21.292Z,101759.34
2022-10-09T12:41:55.685Z,101754.69
2022-10-09T12:44:47.832Z,101758.50
2022-10-09T12:47:50.077Z,101741.47
2022-10-09T12:50:26.043Z,101745.19
2022-10-09T12:53:26.998Z,101733.19
2022-10-09T12:55:59.269Z,101732.69
2022-10-09T12:58:31.075Z,101720.53
2022-10-09T13:01:02.413Z,101727.44
2022-10-09T13:03:36.550Z,101719.78
2022-10-09T13:06:07.151Z,101715.09
2022-10-09T13:08:39.143Z,101708.78
2022-10-09T13:11:12.539Z,101713.16
2022-10-09T13:13:42.187Z,101708.25
2022-10-09T13:16:11.300Z,101704.88
2022-10-09T13:18:39.536Z,101697.03
2022-10-09T13:21:24.426Z,101695.38
2022-10-09T13:23:52.603Z,101690.25
2022-10-09T13:26:26.772Z,101685.69
2022-10-09T13:28:58.378Z,101673.09
2022-10-09T13:31:26.796Z,101678.09
2022-10-09T13:33:54.737Z,101670.25
2022-10-09T13:36:22.670Z,101668.13
2022-10-09T13:38:50.805Z,101659.19
2022-10-09T13:41:24.272Z,101654.69
2022-10-09T13:43:54.291Z,101658.88
2022-10-09T13:46:23.650Z,101651.00
2022-10-09T13:48:51.609Z,101642.94
2022-10-09T13:51:19.704Z,101637.13
2022-10-09T13:53:47.645Z,101647.66
2022-10-09T13:56:15.601Z,101639.22
2022-10-09T13:58:43.631Z,101635.75
2022-10-09T14:01:11.686Z,101639.81
2022-10-09T14:03:41.556Z,101624.66
2022-10-09T14:06:09.682Z,101625.50
2022-10-09T14:08:38.534Z,101622.47
2022-10-09T14:11:06.848Z,101605.53
2022-10-09T14:13:35.152Z,101610.69
2022-10-09T14:16:05.620Z,101609.88
2022-10-09T14:18:33.591Z,101600.66
2022-10-09T14:21:14.623Z,101596.31
2022-10-09T14:23:43.321Z,101596.75
2022-10-09T14:26:11.323Z,101591.13
2022-10-09T14:28:39.475Z,101584.47
2022-10-09T14:31:08.344Z,101582.47
2022-10-09T14:33:36.488Z,101581.38
2022-10-09T14:36:11.353Z,101578.84
2022-10-09T14:38:39.760Z,101571.94
2022-10-09T14:41:09.102Z,101567.63
2022-10-09T14:43:37.564Z,101566.31
2022-10-09T14:46:07.316Z,101568.22
2022-10-09T14:48:35.628Z,101552.50
2022-10-09T14:51:05.259Z,101553.22
2022-10-09T14:53:35.181Z,101552.44
2022-10-09T14:56:03.869Z,101546.63
2022-10-09T14:58:33.826Z,101539.38
2022-10-09T15:01:02.821Z,101540.94
2022-10-09T15:03:31.744Z,101534.13
2022-10-09T15:06:00.768Z,101530.72
2022-10-09T15:08:31.048Z,101529.50
2022-10-09T15:11:00.647Z,101523.69
2022-10-09T15:13:28.874Z,101526.56
2022-10-09T15:16:00.175Z,101518.81
2022-10-09T15:18:28.596Z,101515.81
2022-10-09T15:20:57.718Z,101511.03
2022-10-09T15:23:25.728Z,101505.19
2022-10-09T15:25:55.492Z,101500.94
2022-10-09T15:28:25.895Z,101497.72
2022-10-09T15:30:56.589Z,101493.53
2022-10-09T15:33:25.048Z,101490.19
2022-10-09T15:37:00.099Z,101489.06
2022-10-09T15:39:28.466Z,101474.59
2022-10-09T15:43:40.502Z,101480.56
2022-10-09T15:45:52.893Z,101480.38
2022-10-09T15:48:50.181Z,101480.13
2022-10-09T15:51:52.615Z,101473.41
2022-10-09T16:33:20.237Z,101436.13
2022-10-09T16:35:48.615Z,101437.09
2022-10-09T16:38:17.770Z,101438.63
2022-10-09T16:41:02.996Z,101441.38
2022-10-09T16:43:36.656Z,101441.13
2022-10-09T16:46:18.505Z,101440.72
2022-10-09T16:48:48.867Z,101436.09
2022-10-09T16:51:28.981Z,101433.88
2022-10-09T16:53:59.403Z,101430.72
2022-10-09T16:56:33.004Z,101419.81
2022-10-09T16:59:14.425Z,101420.78
2022-10-09T17:01:43.747Z,101422.47
2022-10-09T17:04:14.782Z,101425.09
2022-10-09T17:10:08.252Z,101410.00
2022-10-09T17:12:44.952Z,101418.53
2022-10-09T17:36:26.377Z,101398.81
2022-10-09T17:38:54.637Z,101392.03
2022-10-09T17:41:25.058Z,101398.44
2022-10-09T17:43:54.524Z,101395.28
2022-10-09T17:46:23.638Z,101394.34
2022-10-09T17:48:53.489Z,101399.81
2022-10-09T17:51:25.421Z,101402.91
2022-10-09T17:53:54.581Z,101394.50
2022-10-09T17:56:22.584Z,101391.66
2022-10-09T17:58:50.728Z,101388.47
2022-10-09T18:01:19.363Z,101388.63
2022-10-09T18:03:47.392Z,101390.38
2022-10-09T18:06:17.650Z,101376.13
2022-10-09T18:08:47.745Z,101372.84
2022-10-09T18:11:17.757Z,101371.63
2022-10-09T18:13:46.935Z,101368.91
2022-10-09T18:16:17.469Z,101365.72
2022-10-09T18:18:46.014Z,101365.13
2022-10-09T18:21:17.637Z,101360.66
2022-10-09T18:23:48.185Z,101356.47
2022-10-09T18:26:18.289Z,101362.00
2022-10-09T18:28:48.550Z,101356.75
2022-10-09T18:31:20.466Z,101352.63
2022-10-09T18:33:48.569Z,101363.81
2022-10-09T18:36:19.709Z,101355.81
2022-10-09T18:38:56.689Z,101355.81
2022-10-09T18:41:25.065Z,101346.22
2022-10-09T18:43:54.027Z,101339.56
2022-10-09T18:46:26.111Z,101349.31
2022-10-09T18:53:22.806Z,101331.34
2022-10-09T18:55:52.533Z,101334.25
2022-10-09T18:58:22.145Z,101331.09
2022-10-09T19:00:50.539Z,101330.50
2022-10-09T19:03:18.518Z,101333.78
2022-10-09T19:05:46.496Z,101327.06
2022-10-09T19:08:14.560Z,101328.41
2022-10-09T19:10:42.764Z,101325.06
2022-10-09T19:13:18.361Z,101328.34
2022-10-09T19:15:52.655Z,101312.34
2022-10-09T19:18:21.321Z,101315.09
2022-10-09T19:20:50.008Z,101308.31
2022-10-09T19:23:18.113Z,101308.63
2022-10-09T19:25:50.502Z,101302.53
2022-10-09T19:28:20.977Z,101297.31
2022-10-09T19:30:49.495Z,101292.06
2022-10-09T19:33:18.444Z,101294.84
2022-10-09T19:35:51.534Z,101296.34
2022-10-09T19:38:20.002Z,101301.09
2022-10-09T19:40:48.737Z,101285.63
2022-10-09T19:43:18.261Z,101286.50
2022-10-09T19:45:49.928Z,101284.75
2022-10-09T19:48:20.407Z,101285.72
2022-10-09T19:50:48.463Z,101287.00
2022-10-09T19:53:16.522Z,101285.09
2022-10-09T19:55:44.874Z,101283.31
2022-10-09T19:58:14.823Z,101276.09
2022-10-09T20:01:09.230Z,101277.78
2022-10-09T20:03:38.013Z,101277.78
2022-10-09T20:06:43.025Z,101275.94
2022-10-09T20:09:20.894Z,101275.16
2022-10-09T20:11:49.505Z,101270.63
2022-10-09T20:14:17.609Z,101278.66
2022-10-09T20:16:47.202Z,101268.97
2022-10-09T20:19:15.333Z,101276.34
2022-10-09T20:21:43.326Z,101272.88
2022-10-09T20:24:11.361Z,101266.69
2022-10-09T20:26:42.993Z,101265.00
2022-10-09T20:29:11.708Z,101262.41
2022-10-09T20:31:40.192Z,101263.38
2022-10-09T20:34:09.670Z,101266.06
2022-10-09T20:36:39.182Z,101258.28
2022-10-09T20:39:09.459Z,101250.38
2022-10-09T20:41:38.125Z,101255.22
2022-10-09T20:44:07.203Z,101258.00
2022-10-09T20:46:36.942Z,101245.78
2022-10-09T20:49:07.531Z,101246.91
2022-10-09T20:51:38.231Z,101240.88
2022-10-09T20:54:07.477Z,101233.34
2022-10-09T20:56:36.686Z,101240.69
2022-10-09T20:59:04.858Z,101239.75
2022-10-09T21:01:33.003Z,101234.19
2022-10-09T21:04:00.926Z,101222.94
2022-10-09T21:06:30.175Z,101223.41
2022-10-09T21:08:59.938Z,101227.06
2022-10-09T21:11:28.190Z,101220.78
2022-10-09T21:13:56.288Z,101225.47
2022-10-09T21:16:25.408Z,101223.34
2022-10-09T21:18:55.265Z,101210.66
2022-10-09T21:21:23.681Z,101212.59
2022-10-09T21:23:53.453Z,101214.03
2022-10-09T21:26:24.330Z,101210.53
2022-10-09T21:28:58.226Z,101209.09
2022-10-09T21:31:28.876Z,101210.53
2022-10-09T21:33:58.079Z,101202.09
2022-10-09T21:36:33.746Z,101202.09
2022-10-09T21:39:01.833Z,101199.09
2022-10-09T21:41:31.200Z,101193.28
2022-10-09T21:43:59.287Z,101190.28
2022-10-09T21:46:27.630Z,101193.06
2022-10-09T21:48:56.304Z,101184.63
2022-10-09T21:51:24.456Z,101189.22
2022-10-09T21:53:54.299Z,101186.09
2022-10-09T21:56:22.390Z,101178.75
2022-10-09T21:58:52.074Z,101186.03
2022-10-09T22:01:20.236Z,101180.72
2022-10-09T22:03:48.665Z,101174.53
2022-10-09T22:06:19.122Z,101175.38
2022-10-09T22:08:47.992Z,101173.16
2022-10-09T22:11:16.764Z,101164.59
2022-10-09T22:13:45.289Z,101169.91
2022-10-09T22:16:16.483Z,101165.44
2022-10-09T22:18:44.879Z,101161.97
2022-10-09T22:21:15.023Z,101167.03
2022-10-09T22:23:43.874Z,101161.53
2022-10-09T22:26:13.555Z,101165.66
2022-10-09T22:28:41.995Z,101155.69
2022-10-09T22:31:13.565Z,101154.97
2022-10-09T22:33:43.593Z,101146.59
2022-10-09T22:36:14.482Z,101149.72
2022-10-09T22:38:43.860Z,101153.16
2022-10-09T22:41:13.528Z,101153.00
2022-10-09T22:43:42.690Z,101152.69
2022-10-09T22:46:12.681Z,101154.47
2022-10-09T22:48:42.853Z,101146.00
2022-10-09T22:51:13.434Z,101140.75
2022-10-09T22:53:43.002Z,101146.00
2022-10-09T22:56:15.044Z,101140.75
2022-10-09T22:58:43.171Z,101141.94
2022-10-09T23:01:14.467Z,101144.25
2022-10-09T23:03:43.947Z,101138.06
2022-10-09T23:06:14.257Z,101138.81
2022-10-09T23:08:44.659Z,101132.44
2022-10-09T23:11:14.147Z,101131.47
2022-10-09T23:13:42.649Z,101134.38
2022-10-09T23:16:12.592Z,101124.00
2022-10-09T23:18:42.154Z,101132.06
2022-10-09T23:21:15.561Z,101124.38
2022-10-09T23:23:45.392Z,101127.97
2022-10-09T23:26:15.674Z,101118.41
2022-10-09T23:28:44.984Z,101110.84
2022-10-09T23:31:15.338Z,101108.94
2022-10-09T23:33:45.247Z,101107.78
2022-10-09T23:36:17.461Z,101099.91
2022-10-09T23:38:46.524Z,101100.16
2022-10-09T23:41:17.005Z,101106.53
2022-10-09T23:43:45.728Z,101098.25
2022-10-09T23:46:16.208Z,101093.81
2022-10-09T23:48:44.741Z,101091.28
2022-10-09T23:51:14.839Z,101095.69
2022-10-09T23:53:43.482Z,101097.38
2022-10-09T23:56:19.899Z,101102.47
2022-10-09T23:58:48.426Z,101088.31
